sensor_id;sensor_type;location;lat;lon;timestamp;pressure;altitude;pressure_sealevel;temperature;humidity
74895;BME280;63447;49.446;8.666;2023-01-10T00:02:21;100138.13;;;6.36;83.71
74895;BME280;63447;49.446;8.666;2023-01-10T00:04:47;100135.56;;;6.39;82.24
74895;BME280;63447;49.446;8.666;2023-01-10T00:07:12;100135.56;;;6.39;83.79
74895;BME280;63447;49.446;8.666;2023-01-10T00:09:37;100126.53;;;6.39;83.33
74895;BME280;63447;49.446;8.666;2023-01-10T00:12:02;100141.59;;;6.50;83.44
74895;BME280;63447;49.446;8.666;2023-01-10T00:14:46;100140.50;;;6.51;83.90
74895;BME280;63447;49.446;8.666;2023-01-10T00:17:12;100134.69;;;6.53;82.25
74895;BME280;63447;49.446;8.666;2023-01-10T00:19:37;100143.69;;;6.44;82.31
74895;BME280;63447;49.446;8.666;2023-01-10T00:22:02;100133.94;;;6.38;82.02
74895;BME280;63447;49.446;8.666;2023-01-10T00:24:34;100144.28;;;6.41;81.91
74895;BME280;63447;49.446;8.666;2023-01-10T00:26:59;100142.78;;;6.35;81.66
74895;BME280;63447;49.446;8.666;2023-01-10T00:29:28;100156.63;;;6.53;81.72
74895;BME280;63447;49.446;8.666;2023-01-10T00:31:55;100161.00;;;6.54;81.48
74895;BME280;63447;49.446;8.666;2023-01-10T00:34:21;100159.56;;;6.56;82.84
74895;BME280;63447;49.446;8.666;2023-01-10T00:36:49;100171.34;;;6.57;82.47
74895;BME280;63447;49.446;8.666;2023-01-10T00:39:15;100178.94;;;6.60;82.17
74895;BME280;63447;49.446;8.666;2023-01-10T00:41:43;100186.84;;;6.61;82.28
74895;BME280;63447;49.446;8.666;2023-01-10T00:44:27;100191.28;;;6.49;80.88
74895;BME280;63447;49.446;8.666;2023-01-10T00:46:53;100199.72;;;6.38;82.46
74895;BME280;63447;49.446;8.666;2023-01-10T00:49:18;100205.00;;;6.35;81.22
74895;BME280;63447;49.446;8.666;2023-01-10T00:51:44;100210.28;;;6.45;82.46
74895;BME280;63447;49.446;8.666;2023-01-10T00:54:09;100220.47;;;6.53;82.55
74895;BME280;63447;49.446;8.666;2023-01-10T00:56:35;100222.25;;;6.49;80.81
74895;BME280;63447;49.446;8.666;2023-01-10T00:59:03;100224.47;;;6.47;80.23
74895;BME280;63447;49.446;8.666;2023-01-10T01:14:25;100170.56;;;5.79;78.67
74895;BME280;63447;49.446;8.666;2023-01-10T01:16:50;100286.25;;;6.53;78.31
74895;BME280;63447;49.446;8.666;2023-01-10T01:19:18;100288.94;;;6.44;77.60
74895;BME280;63447;49.446;8.666;2023-01-10T01:21:43;100287.41;;;6.38;77.26
74895;BME280;63447;49.446;8.666;2023-01-10T01:24:09;100302.22;;;6.37;77.05
74895;BME280;63447;49.446;8.666;2023-01-10T01:26:37;100285.69;;;6.15;76.62
74895;BME280;63447;49.446;8.666;2023-01-10T01:29:03;100318.66;;;6.24;76.27
74895;BME280;63447;49.446;8.666;2023-01-10T01:31:29;100309.75;;;6.18;77.17
74895;BME280;63447;49.446;8.666;2023-01-10T01:33:54;100337.75;;;6.29;77.11
74895;BME280;63447;49.446;8.666;2023-01-10T01:36:19;100345.44;;;6.27;77.56
74895;BME280;63447;49.446;8.666;2023-01-10T01:38:45;100351.06;;;6.22;78.06
74895;BME280;63447;49.446;8.666;2023-01-10T01:41:10;100364.75;;;6.22;77.54
74895;BME280;63447;49.446;8.666;2023-01-10T01:44:13;100378.16;;;6.23;76.73
74895;BME280;63447;49.446;8.666;2023-01-10T01:46:40;100373.06;;;6.17;76.26
74895;BME280;63447;49.446;8.666;2023-01-10T01:49:13;100395.06;;;6.25;76.74
74895;BME280;63447;49.446;8.666;2023-01-10T01:51:40;100403.09;;;6.22;76.91
74895;BME280;63447;49.446;8.666;2023-01-10T01:54:10;100409.41;;;6.22;77.87
74895;BME280;63447;49.446;8.666;2023-01-10T01:57:06;100422.06;;;6.18;77.85
74895;BME280;63447;49.446;8.666;2023-01-10T01:59:39;100428.06;;;6.20;77.33
74895;BME280;63447;49.446;8.666;2023-01-10T02:02:21;100433.25;;;6.22;77.28
74895;BME280;63447;49.446;8.666;2023-01-10T02:04:58;100451.50;;;6.26;76.90
74895;BME280;63447;49.446;8.666;2023-01-10T02:07:28;100437.41;;;6.19;76.63
74895;BME280;63447;49.446;8.666;2023-01-10T02:09:58;100450.38;;;6.27;76.74
74895;BME280;63447;49.446;8.666;2023-01-10T02:12:28;100456.97;;;6.26;77.27
74895;BME280;63447;49.446;8.666;2023-01-10T02:14:54;100445.41;;;6.16;76.70
74895;BME280;63447;49.446;8.666;2023-01-10T02:17:20;100464.91;;;6.28;76.61
74895;BME280;63447;49.446;8.666;2023-01-10T02:34:03;100497.25;;;6.26;77.09
74895;BME280;63447;49.446;8.666;2023-01-10T02:39:27;100489.16;;;6.21;77.18
74895;BME280;63447;49.446;8.666;2023-01-10T02:41:59;100494.00;;;6.24;77.30
74895;BME280;63447;49.446;8.666;2023-01-10T02:44:50;100500.94;;;6.21;76.03
74895;BME280;63447;49.446;8.666;2023-01-10T02:47:20;100498.34;;;6.11;77.81
74895;BME280;63447;49.446;8.666;2023-01-10T02:49:48;100512.19;;;6.20;77.44
74895;BME280;63447;49.446;8.666;2023-01-10T02:52:34;100504.78;;;6.20;76.99
74895;BME280;63447;49.446;8.666;2023-01-10T02:55:01;100488.19;;;6.11;76.89
74895;BME280;63447;49.446;8.666;2023-01-10T02:57:55;100515.72;;;6.20;77.27
74895;BME280;63447;49.446;8.666;2023-01-10T03:06:06;100523.84;;;6.25;76.89
74895;BME280;63447;49.446;8.666;2023-01-10T03:08:42;100532.06;;;6.25;76.10
74895;BME280;63447;49.446;8.666;2023-01-10T03:11:13;100532.88;;;6.26;76.09
74895;BME280;63447;49.446;8.666;2023-01-10T03:13:52;100542.53;;;6.23;76.32
74895;BME280;63447;49.446;8.666;2023-01-10T03:16:26;100540.91;;;6.22;76.24
74895;BME280;63447;49.446;8.666;2023-01-10T03:19:01;100546.47;;;6.17;75.19
74895;BME280;63447;49.446;8.666;2023-01-10T03:21:29;100546.16;;;6.19;75.40
74895;BME280;63447;49.446;8.666;2023-01-10T03:24:01;100549.56;;;6.10;75.35
74895;BME280;63447;49.446;8.666;2023-01-10T03:26:42;100562.31;;;6.20;76.66
74895;BME280;63447;49.446;8.666;2023-01-10T03:29:11;100577.41;;;6.18;75.49
74895;BME280;63447;49.446;8.666;2023-01-10T03:31:47;100562.69;;;6.13;75.27
74895;BME280;63447;49.446;8.666;2023-01-10T03:34:18;100558.69;;;6.06;76.14
74895;BME280;63447;49.446;8.666;2023-01-10T03:36:52;100574.53;;;6.09;74.55
74895;BME280;63447;49.446;8.666;2023-01-10T03:40:01;100577.72;;;6.16;75.03
74895;BME280;63447;49.446;8.666;2023-01-10T03:42:34;100579.63;;;6.16;74.69
74895;BME280;63447;49.446;8.666;2023-01-10T03:45:26;100583.84;;;6.08;75.81
74895;BME280;63447;49.446;8.666;2023-01-10T03:47:59;100594.22;;;6.11;74.88
74895;BME280;63447;49.446;8.666;2023-01-10T03:50:27;100594.22;;;6.11;74.65
74895;BME280;63447;49.446;8.666;2023-01-10T03:52:55;100606.59;;;6.08;75.30
74895;BME280;63447;49.446;8.666;2023-01-10T03:55:24;100610.72;;;6.06;75.68
74895;BME280;63447;49.446;8.666;2023-01-10T03:57:50;100599.41;;;5.94;75.12
74895;BME280;63447;49.446;8.666;2023-01-10T04:00:16;100608.88;;;6.01;75.43
74895;BME280;63447;49.446;8.666;2023-01-10T04:02:42;100621.16;;;6.04;74.50
74895;BME280;63447;49.446;8.666;2023-01-10T04:05:10;100618.50;;;5.99;74.81
74895;BME280;63447;49.446;8.666;2023-01-10T04:07:36;100628.34;;;6.00;74.87
74895;BME280;63447;49.446;8.666;2023-01-10T04:10:03;100623.25;;;5.93;76.10
74895;BME280;63447;49.446;8.666;2023-01-10T04:12:30;100642.03;;;6.00;75.75
74895;BME280;63447;49.446;8.666;2023-01-10T04:14:56;100641.50;;;5.98;75.44
74895;BME280;63447;49.446;8.666;2023-01-10T04:17:23;100645.88;;;5.99;75.58
74895;BME280;63447;49.446;8.666;2023-01-10T04:19:51;100646.25;;;5.92;75.94
74895;BME280;63447;49.446;8.666;2023-01-10T04:22:19;100659.44;;;5.90;75.51
74895;BME280;63447;49.446;8.666;2023-01-10T04:24:44;100659.66;;;5.94;76.47
74895;BME280;63447;49.446;8.666;2023-01-10T04:27:14;100662.94;;;5.96;74.98
74895;BME280;63447;49.446;8.666;2023-01-10T04:29:42;100654.25;;;5.89;75.46
74895;BME280;63447;49.446;8.666;2023-01-10T04:32:07;100671.19;;;5.91;75.25
74895;BME280;63447;49.446;8.666;2023-01-10T04:34:33;100665.53;;;5.82;75.62
74895;BME280;63447;49.446;8.666;2023-01-10T04:36:58;100676.97;;;5.89;76.64
74895;BME280;63447;49.446;8.666;2023-01-10T04:39:26;100677.22;;;5.88;75.78
74895;BME280;63447;49.446;8.666;2023-01-10T04:41:51;100686.25;;;5.88;76.25
74895;BME280;63447;49.446;8.666;2023-01-10T04:44:16;100685.22;;;5.84;75.29
74895;BME280;63447;49.446;8.666;2023-01-10T04:46:41;100686.03;;;5.85;76.13
74895;BME280;63447;49.446;8.666;2023-01-10T04:49:08;100684.69;;;5.82;75.34
74895;BME280;63447;49.446;8.666;2023-01-10T04:51:34;100687.41;;;5.82;75.65
74895;BME280;63447;49.446;8.666;2023-01-10T04:53:59;100687.41;;;5.82;75.65
74895;BME280;63447;49.446;8.666;2023-01-10T04:56:24;100672.81;;;5.68;75.48
74895;BME280;63447;49.446;8.666;2023-01-10T04:58:49;100708.47;;;5.87;75.78
74895;BME280;63447;49.446;8.666;2023-01-10T05:01:20;100710.09;;;5.88;76.71
74895;BME280;63447;49.446;8.666;2023-01-10T05:03:47;100725.16;;;5.90;75.98
74895;BME280;63447;49.446;8.666;2023-01-10T05:06:13;100732.00;;;5.88;75.73
74895;BME280;63447;49.446;8.666;2023-01-10T05:08:39;100706.41;;;5.73;75.31
74895;BME280;63447;49.446;8.666;2023-01-10T05:11:04;100734.47;;;5.89;75.70
74895;BME280;63447;49.446;8.666;2023-01-10T05:13:30;100726.69;;;5.72;74.86
74895;BME280;63447;49.446;8.666;2023-01-10T05:15:58;100733.50;;;5.75;75.87
74895;BME280;63447;49.446;8.666;2023-01-10T05:18:27;100745.44;;;5.89;75.34
74895;BME280;63447;49.446;8.666;2023-01-10T05:21:02;100745.97;;;5.86;75.06
74895;BME280;63447;49.446;8.666;2023-01-10T05:23:28;100746.78;;;5.87;74.60
74895;BME280;63447;49.446;8.666;2023-01-10T05:25:54;100761.56;;;5.91;75.72
74895;BME280;63447;49.446;8.666;2023-01-10T05:28:20;100754.72;;;5.88;75.62
74895;BME280;63447;49.446;8.666;2023-01-10T05:30:45;100762.38;;;5.91;75.63
74895;BME280;63447;49.446;8.666;2023-01-10T05:33:10;100766.47;;;5.94;74.04
74895;BME280;63447;49.446;8.666;2023-01-10T05:35:36;100771.72;;;5.85;74.64
74895;BME280;63447;49.446;8.666;2023-01-10T05:38:01;100764.03;;;5.87;74.73
74895;BME280;63447;49.446;8.666;2023-01-10T05:40:26;100759.47;;;5.77;74.73
74895;BME280;63447;49.446;8.666;2023-01-10T05:42:51;100766.53;;;5.84;75.15
74895;BME280;63447;49.446;8.666;2023-01-10T05:45:17;100752.25;;;5.63;74.87
74895;BME280;63447;49.446;8.666;2023-01-10T05:47:42;100778.94;;;5.76;74.96
74895;BME280;63447;49.446;8.666;2023-01-10T05:50:09;100786.16;;;5.67;75.75
74895;BME280;63447;49.446;8.666;2023-01-10T05:52:34;100785.31;;;5.71;75.99
74895;BME280;63447;49.446;8.666;2023-01-10T05:55:00;100796.19;;;5.76;75.26
74895;BME280;63447;49.446;8.666;2023-01-10T05:57:25;100801.09;;;5.79;75.45
74895;BME280;63447;49.446;8.666;2023-01-10T05:59:50;100794.50;;;5.80;76.00
74895;BME280;63447;49.446;8.666;2023-01-10T06:02:16;100787.97;;;5.76;75.98
74895;BME280;63447;49.446;8.666;2023-01-10T06:04:43;100800.50;;;5.83;74.96
74895;BME280;63447;49.446;8.666;2023-01-10T06:07:09;100809.22;;;5.61;75.74
74895;BME280;63447;49.446;8.666;2023-01-10T06:09:34;100816.13;;;5.82;75.12
74895;BME280;63447;49.446;8.666;2023-01-10T06:11:59;100821.31;;;5.84;76.23
74895;BME280;63447;49.446;8.666;2023-01-10T06:14:25;100816.97;;;5.77;76.21
74895;BME280;63447;49.446;8.666;2023-01-10T06:16:50;100832.41;;;5.68;76.07
74895;BME280;63447;49.446;8.666;2023-01-10T06:19:15;100834.06;;;5.69;77.31
74895;BME280;63447;49.446;8.666;2023-01-10T06:21:43;100841.06;;;5.80;75.76
74895;BME280;63447;49.446;8.666;2023-01-10T06:24:13;100842.81;;;5.71;76.57
74895;BME280;63447;49.446;8.666;2023-01-10T06:26:38;100852.94;;;5.71;77.12
74895;BME280;63447;49.446;8.666;2023-01-10T06:29:03;100861.91;;;5.76;75.35
74895;BME280;63447;49.446;8.666;2023-01-10T06:31:29;100873.41;;;5.73;76.95
74895;BME280;63447;49.446;8.666;2023-01-10T06:33:54;100859.25;;;5.66;76.15
74895;BME280;63447;49.446;8.666;2023-01-10T06:36:19;100871.78;;;5.72;75.90
74895;BME280;63447;49.446;8.666;2023-01-10T06:38:45;100873.66;;;5.77;76.29
74895;BME280;63447;49.446;8.666;2023-01-10T06:41:12;100878.56;;;5.80;75.69
74895;BME280;63447;49.446;8.666;2023-01-10T06:43:45;100869.84;;;5.73;75.87
74895;BME280;63447;49.446;8.666;2023-01-10T06:46:16;100885.34;;;5.88;74.00
74895;BME280;63447;49.446;8.666;2023-01-10T06:48:44;100891.66;;;5.88;74.68
74895;BME280;63447;49.446;8.666;2023-01-10T06:51:10;100897.97;;;5.84;74.56
74895;BME280;63447;49.446;8.666;2023-01-10T06:53:44;100900.16;;;5.87;73.89
74895;BME280;63447;49.446;8.666;2023-01-10T06:56:10;100906.22;;;5.78;75.50
74895;BME280;63447;49.446;8.666;2023-01-10T06:58:37;100921.41;;;6.00;74.21
74895;BME280;63447;49.446;8.666;2023-01-10T07:01:11;100930.25;;;5.92;75.41
74895;BME280;63447;49.446;8.666;2023-01-10T07:03:37;100919.97;;;5.73;76.42
74895;BME280;63447;49.446;8.666;2023-01-10T07:06:04;100933.34;;;5.80;76.06
74895;BME280;63447;49.446;8.666;2023-01-10T07:08:34;100926.63;;;5.62;77.68
74895;BME280;63447;49.446;8.666;2023-01-10T07:10:59;100926.34;;;5.64;77.99
74895;BME280;63447;49.446;8.666;2023-01-10T07:13:25;100819.91;;;4.89;77.47
74895;BME280;63447;49.446;8.666;2023-01-10T07:15:50;100917.38;;;5.53;76.80
74895;BME280;63447;49.446;8.666;2023-01-10T07:18:15;100914.69;;;5.48;77.40
74895;BME280;63447;49.446;8.666;2023-01-10T07:20:44;100916.09;;;5.45;77.24
74895;BME280;63447;49.446;8.666;2023-01-10T07:23:10;100936.47;;;5.63;76.18
74895;BME280;63447;49.446;8.666;2023-01-10T07:25:35;100946.84;;;5.71;77.56
74895;BME280;63447;49.446;8.666;2023-01-10T07:28:03;100940.81;;;5.69;76.41
74895;BME280;63447;49.446;8.666;2023-01-10T07:30:31;100945.81;;;5.62;76.75
74895;BME280;63447;49.446;8.666;2023-01-10T07:32:57;100955.69;;;5.58;77.83
74895;BME280;63447;49.446;8.666;2023-01-10T07:35:23;100967.41;;;5.64;76.92
74895;BME280;63447;49.446;8.666;2023-01-10T07:37:48;100963.88;;;5.58;77.14
74895;BME280;63447;49.446;8.666;2023-01-10T07:42:45;100981.38;;;5.62;77.19
74895;BME280;63447;49.446;8.666;2023-01-10T07:45:10;100998.31;;;5.69;76.91
74895;BME280;63447;49.446;8.666;2023-01-10T07:47:36;100993.38;;;5.71;76.75
74895;BME280;63447;49.446;8.666;2023-01-10T07:50:01;100988.13;;;5.75;76.74
74895;BME280;63447;49.446;8.666;2023-01-10T07:52:29;100948.81;;;5.61;76.03
74895;BME280;63447;49.446;8.666;2023-01-10T07:54:57;100987.56;;;5.78;76.79
74895;BME280;63447;49.446;8.666;2023-01-10T07:57:22;100977.81;;;5.67;76.52
74895;BME280;63447;49.446;8.666;2023-01-10T07:59:47;100991.78;;;5.65;75.85
74895;BME280;63447;49.446;8.666;2023-01-10T08:02:13;101010.31;;;5.73;76.61
74895;BME280;63447;49.446;8.666;2023-01-10T08:04:38;101007.28;;;5.75;76.19
74895;BME280;63447;49.446;8.666;2023-01-10T08:07:05;101004.94;;;5.58;77.71
74895;BME280;63447;49.446;8.666;2023-01-10T08:09:33;101014.97;;;5.73;76.48
74895;BME280;63447;49.446;8.666;2023-01-10T08:12:01;101025.09;;;5.72;76.98
74895;BME280;63447;49.446;8.666;2023-01-10T08:14:26;101000.03;;;5.55;77.29
74895;BME280;63447;49.446;8.666;2023-01-10T08:16:51;101025.69;;;5.69;77.13
74895;BME280;63447;49.446;8.666;2023-01-10T08:19:16;101026.81;;;5.68;76.81
74895;BME280;63447;49.446;8.666;2023-01-10T08:21:42;101022.38;;;5.72;76.45
74895;BME280;63447;49.446;8.666;2023-01-10T08:24:10;101011.41;;;5.72;77.01
74895;BME280;63447;49.446;8.666;2023-01-10T08:26:38;101024.78;;;5.79;76.60
74895;BME280;63447;49.446;8.666;2023-01-10T08:29:03;101028.34;;;5.79;77.14
74895;BME280;63447;49.446;8.666;2023-01-10T08:34:04;101020.69;;;5.76;75.58
74895;BME280;63447;49.446;8.666;2023-01-10T08:36:32;101033.84;;;5.79;75.56
74895;BME280;63447;49.446;8.666;2023-01-10T08:38:59;101051.38;;;5.73;76.66
74895;BME280;63447;49.446;8.666;2023-01-10T08:41:25;101045.06;;;5.78;76.35
74895;BME280;63447;49.446;8.666;2023-01-10T08:43:51;101028.63;;;5.78;76.58
74895;BME280;63447;49.446;8.666;2023-01-10T08:46:17;101053.00;;;5.79;76.25
74895;BME280;63447;49.446;8.666;2023-01-10T08:48:44;101038.03;;;5.67;76.79
74895;BME280;63447;49.446;8.666;2023-01-10T08:51:09;101062.03;;;5.80;76.84
74895;BME280;63447;49.446;8.666;2023-01-10T08:53:39;101069.13;;;5.86;76.60
74895;BME280;63447;49.446;8.666;2023-01-10T08:56:08;101069.44;;;5.74;76.97
74895;BME280;63447;49.446;8.666;2023-01-10T08:58:33;101074.34;;;5.83;76.61
74895;BME280;63447;49.446;8.666;2023-01-10T09:01:02;101074.91;;;5.79;76.46
74895;BME280;63447;49.446;8.666;2023-01-10T09:03:27;101069.16;;;5.81;76.25
74895;BME280;63447;49.446;8.666;2023-01-10T09:05:52;101067.78;;;5.78;76.81
74895;BME280;63447;49.446;8.666;2023-01-10T09:08:18;101069.94;;;5.87;76.35
74895;BME280;63447;49.446;8.666;2023-01-10T09:10:43;101063.50;;;5.67;75.97
74895;BME280;63447;49.446;8.666;2023-01-10T09:13:12;101057.47;;;5.65;76.38
74895;BME280;63447;49.446;8.666;2023-01-10T09:15:37;101074.84;;;5.95;74.93
74895;BME280;63447;49.446;8.666;2023-01-10T09:18:10;101074.38;;;5.72;75.37
74895;BME280;63447;49.446;8.666;2023-01-10T09:20:37;101080.69;;;5.73;76.27
74895;BME280;63447;49.446;8.666;2023-01-10T09:23:07;101056.16;;;5.53;76.55
74895;BME280;63447;49.446;8.666;2023-01-10T09:25:35;101090.53;;;5.74;75.54
74895;BME280;63447;49.446;8.666;2023-01-10T09:28:02;101098.22;;;5.72;75.72
74895;BME280;63447;49.446;8.666;2023-01-10T09:30:29;101100.66;;;5.73;76.26
74895;BME280;63447;49.446;8.666;2023-01-10T09:32:55;101108.31;;;5.76;75.57
74895;BME280;63447;49.446;8.666;2023-01-10T09:35:21;101106.69;;;5.75;75.83
74895;BME280;63447;49.446;8.666;2023-01-10T09:37:53;101067.19;;;5.42;75.61
74895;BME280;63447;49.446;8.666;2023-01-10T09:43:07;101106.13;;;5.78;75.45
74895;BME280;63447;49.446;8.666;2023-01-10T09:51:41;101129.91;;;5.93;75.05
74895;BME280;63447;49.446;8.666;2023-01-10T09:54:16;101128.28;;;5.92;74.90
74895;BME280;63447;49.446;8.666;2023-01-10T09:56:46;101131.84;;;5.83;75.12
74895;BME280;63447;49.446;8.666;2023-01-10T09:59:17;101132.41;;;5.79;75.32
74895;BME280;63447;49.446;8.666;2023-01-10T10:01:47;101141.69;;;5.84;75.13
74895;BME280;63447;49.446;8.666;2023-01-10T10:06:57;101140.63;;;5.90;75.41
74895;BME280;63447;49.446;8.666;2023-01-10T10:09:25;101123.13;;;5.75;76.00
74895;BME280;63447;49.446;8.666;2023-01-10T10:16:59;101137.31;;;5.88;76.46
74895;BME280;63447;49.446;8.666;2023-01-10T10:22:17;101131.31;;;5.80;77.10
74895;BME280;63447;49.446;8.666;2023-01-10T10:25:09;101131.03;;;5.92;76.44
74895;BME280;63447;49.446;8.666;2023-01-10T10:28:12;101140.06;;;5.93;76.44
74895;BME280;63447;49.446;8.666;2023-01-10T10:36:19;101124.44;;;5.93;76.97
74895;BME280;63447;49.446;8.666;2023-01-10T10:38:46;101128.53;;;5.96;77.18
74895;BME280;63447;49.446;8.666;2023-01-10T10:43:55;101133.38;;;6.09;76.65
74895;BME280;63447;49.446;8.666;2023-01-10T10:46:25;101123.53;;;6.03;77.29
74895;BME280;63447;49.446;8.666;2023-01-10T10:48:57;101091.59;;;5.83;76.99
74895;BME280;63447;49.446;8.666;2023-01-10T10:54:01;101109.88;;;5.98;76.46
74895;BME280;63447;49.446;8.666;2023-01-10T10:56:26;101129.03;;;6.03;76.81
74895;BME280;63447;49.446;8.666;2023-01-10T10:58:54;101124.59;;;6.12;76.67
74895;BME280;63447;49.446;8.666;2023-01-10T11:01:21;101129.19;;;6.22;75.46
74895;BME280;63447;49.446;8.666;2023-01-10T11:04:11;101123.94;;;6.25;75.83
74895;BME280;63447;49.446;8.666;2023-01-10T11:06:39;101113.06;;;6.15;75.37
74895;BME280;63447;49.446;8.666;2023-01-10T11:09:10;101084.66;;;6.01;75.83
74895;BME280;63447;49.446;8.666;2023-01-10T11:11:48;101119.78;;;6.33;75.43
74895;BME280;63447;49.446;8.666;2023-01-10T11:14:46;101122.09;;;6.21;75.02
74895;BME280;63447;49.446;8.666;2023-01-10T11:17:19;101123.84;;;6.40;75.19
74895;BME280;63447;49.446;8.666;2023-01-10T11:20:03;101111.50;;;6.43;74.59
74895;BME280;63447;49.446;8.666;2023-01-10T11:22:36;101095.00;;;6.14;74.41
74895;BME280;63447;49.446;8.666;2023-01-10T11:25:02;101098.88;;;6.08;75.12
74895;BME280;63447;49.446;8.666;2023-01-10T11:27:29;101119.25;;;6.31;74.96
74895;BME280;63447;49.446;8.666;2023-01-10T11:29:57;101120.81;;;6.42;74.34
74895;BME280;63447;49.446;8.666;2023-01-10T11:32:33;101097.72;;;6.14;74.82
74895;BME280;63447;49.446;8.666;2023-01-10T11:35:08;101116.00;;;6.24;74.25
74895;BME280;63447;49.446;8.666;2023-01-10T11:37:42;101095.28;;;6.12;74.69
74895;BME280;63447;49.446;8.666;2023-01-10T11:40:22;101138.69;;;6.34;74.48
74895;BME280;63447;49.446;8.666;2023-01-10T11:42:52;101125.25;;;6.33;74.62
74895;BME280;63447;49.446;8.666;2023-01-10T11:47:51;101135.41;;;6.32;74.65
74895;BME280;63447;49.446;8.666;2023-01-10T11:50:22;101134.56;;;6.37;74.20
74895;BME280;63447;49.446;8.666;2023-01-10T11:52:49;101121.47;;;6.24;74.38
74895;BME280;63447;49.446;8.666;2023-01-10T11:55:23;101123.06;;;6.35;74.01
74895;BME280;63447;49.446;8.666;2023-01-10T11:58:09;101128.47;;;6.45;73.70
74895;BME280;63447;49.446;8.666;2023-01-10T12:00:43;101124.94;;;6.39;74.08
74895;BME280;63447;49.446;8.666;2023-01-10T12:03:39;101124.16;;;6.34;73.78
74895;BME280;63447;49.446;8.666;2023-01-10T12:06:07;101091.56;;;6.32;71.85
74895;BME280;63447;49.446;8.666;2023-01-10T12:08:35;101111.66;;;6.57;72.40
74895;BME280;63447;49.446;8.666;2023-01-10T12:11:04;101118.59;;;6.49;71.02
74895;BME280;63447;49.446;8.666;2023-01-10T12:13:44;101116.50;;;6.31;71.93
74895;BME280;63447;49.446;8.666;2023-01-10T12:18:53;101107.41;;;6.40;72.43
74895;BME280;63447;49.446;8.666;2023-01-10T12:21:23;101106.25;;;6.46;73.48
74895;BME280;63447;49.446;8.666;2023-01-10T12:23:52;101104.28;;;6.52;72.94
74895;BME280;63447;49.446;8.666;2023-01-10T12:26:22;101079.81;;;6.27;73.83
74895;BME280;63447;49.446;8.666;2023-01-10T12:28:53;101100.22;;;6.50;73.74
74895;BME280;63447;49.446;8.666;2023-01-10T12:31:21;101111.25;;;6.39;72.94
74895;BME280;63447;49.446;8.666;2023-01-10T12:33:54;101097.22;;;6.46;72.77
74895;BME280;63447;49.446;8.666;2023-01-10T12:49:51;101092.41;;;6.62;72.86
74895;BME280;63447;49.446;8.666;2023-01-10T12:52:33;101087.50;;;6.59;72.36
74895;BME280;63447;49.446;8.666;2023-01-10T12:55:01;101063.75;;;6.49;72.45
74895;BME280;63447;49.446;8.666;2023-01-10T12:57:31;101044.66;;;6.39;70.69
74895;BME280;63447;49.446;8.666;2023-01-10T13:00:03;101073.31;;;6.52;70.88
74895;BME280;63447;49.446;8.666;2023-01-10T13:02:39;101081.69;;;6.65;70.26
74895;BME280;63447;49.446;8.666;2023-01-10T13:05:15;101084.03;;;6.77;69.79
74895;BME280;63447;49.446;8.666;2023-01-10T13:07:42;101091.56;;;6.66;70.09
74895;BME280;63447;49.446;8.666;2023-01-10T13:10:14;101097.91;;;6.62;68.83
74895;BME280;63447;49.446;8.666;2023-01-10T13:12:49;101091.84;;;6.65;69.37
74895;BME280;63447;49.446;8.666;2023-01-10T13:15:36;101086.28;;;6.75;69.26
74895;BME280;63447;49.446;8.666;2023-01-10T13:18:32;101093.81;;;6.88;68.54
74895;BME280;63447;49.446;8.666;2023-01-10T13:21:02;101092.47;;;6.86;69.00
74895;BME280;63447;49.446;8.666;2023-01-10T13:23:38;101082.88;;;6.83;69.43
74895;BME280;63447;49.446;8.666;2023-01-10T13:26:12;101076.16;;;6.70;69.11
74895;BME280;63447;49.446;8.666;2023-01-10T13:28:44;101098.84;;;6.76;67.87
74895;BME280;63447;49.446;8.666;2023-01-10T13:31:30;101092.56;;;6.75;68.55
74895;BME280;63447;49.446;8.666;2023-01-10T13:34:05;101087.94;;;6.71;67.61
74895;BME280;63447;49.446;8.666;2023-01-10T13:36:51;101083.09;;;6.63;67.89
74895;BME280;63447;49.446;8.666;2023-01-10T13:39:23;101080.91;;;6.89;67.39
74895;BME280;63447;49.446;8.666;2023-01-10T13:57:53;101072.66;;;8.68;60.92
74895;BME280;63447;49.446;8.666;2023-01-10T14:00:46;101078.66;;;9.02;61.13
74895;BME280;63447;49.446;8.666;2023-01-10T14:03:54;101081.56;;;8.92;60.84
74895;BME280;63447;49.446;8.666;2023-01-10T14:09:00;101069.69;;;8.50;61.84
74895;BME280;63447;49.446;8.666;2023-01-10T14:11:53;101073.25;;;8.13;62.17
74895;BME280;63447;49.446;8.666;2023-01-10T14:17:08;101076.03;;;7.76;63.97
74895;BME280;63447;49.446;8.666;2023-01-10T14:19:35;101067.44;;;7.59;64.64
74895;BME280;63447;49.446;8.666;2023-01-10T14:22:03;101020.09;;;7.05;64.40
74895;BME280;63447;49.446;8.666;2023-01-10T14:24:42;101065.34;;;7.08;64.42
74895;BME280;63447;49.446;8.666;2023-01-10T14:27:13;101051.84;;;7.11;65.55
74895;BME280;63447;49.446;8.666;2023-01-10T14:29:46;101040.19;;;7.01;65.97
74895;BME280;63447;49.446;8.666;2023-01-10T14:32:30;101041.69;;;7.12;65.58
74895;BME280;63447;49.446;8.666;2023-01-10T14:34:59;101038.56;;;7.00;65.38
74895;BME280;63447;49.446;8.666;2023-01-10T14:37:32;101037.94;;;7.03;64.87
74895;BME280;63447;49.446;8.666;2023-01-10T14:40:05;100997.22;;;6.91;64.88
74895;BME280;63447;49.446;8.666;2023-01-10T14:42:35;101028.59;;;7.04;65.85
74895;BME280;63447;49.446;8.666;2023-01-10T14:45:22;100998.84;;;6.92;66.29
74895;BME280;63447;49.446;8.666;2023-01-10T14:47:50;101009.88;;;6.87;66.30
74895;BME280;63447;49.446;8.666;2023-01-10T14:50:27;101011.03;;;6.81;66.87
74895;BME280;63447;49.446;8.666;2023-01-10T14:52:53;101002.13;;;6.70;66.61
74895;BME280;63447;49.446;8.666;2023-01-10T14:55:20;101000.34;;;6.79;66.76
74895;BME280;63447;49.446;8.666;2023-01-10T14:57:56;101011.56;;;6.83;66.98
74895;BME280;63447;49.446;8.666;2023-01-10T15:00:30;101011.00;;;6.86;66.91
74895;BME280;63447;49.446;8.666;2023-01-10T15:02:58;101007.47;;;7.04;66.40
74895;BME280;63447;49.446;8.666;2023-01-10T15:05:28;101009.81;;;6.92;66.27
74895;BME280;63447;49.446;8.666;2023-01-10T15:07:55;101004.34;;;6.92;67.01